Data for 05/27/2010

Time Sea-Level Adjusted Pressure Absolute Pressure Temperature Relative Humidity Dew Point   
(mb) (inHg) (mb) (inHg) (C) (F) (%) (C) (F)
00:05 1016 30 845 24.95 11 51.8 71 6.1 43
00:10 1016 30 845 24.95 10.9 51.7 73 6.4 43.5
00:15 1016 30 845 24.95 10.6 51 75 6.3 43.4
00:20 1016 30 845 24.95 10.3 50.6 75 6.2 43.1
00:25 1016 30 845 24.95 10.2 50.4 75 6.1 43
00:30 1016 30 845 24.95 10.2 50.4 76 6.1 43
00:35 1016 30 845 24.95 10 49.9 76 6 42.8
00:40 1015 29.97 845 24.95 9.7 49.4 78 6 42.8
00:45 1015 29.97 845 24.95 9.5 49.1 76 5.4 41.7
00:50 1015 29.97 845 24.95 9.3 48.8 76 5.3 41.6
00:55 1015 29.97 845 24.95 9.2 48.5 75 5 41.1
01:00 1015 29.97 844 24.92 9 48.3 75 4.8 40.6
01:05 1015 29.97 844 24.92 8.7 47.7 75 4.6 40.2
01:10 1015 29.97 844 24.92 8.4 47.2 78 4.9 40.8
01:15 1015 29.97 844 24.92 8 46.4 80 4.9 40.8
01:20 1015 29.97 844 24.92 8.1 46.7 80 5 41
01:25 1015 29.97 844 24.92 8.6 47.5 79 5.2 41.4
01:30 1015 29.97 844 24.92 8.6 47.6 80 5.3 41.6
01:35 1015 29.97 844 24.92 8.5 47.2 79 5.1 41.2
01:40 1015 29.97 844 24.92 8.4 47 79 5 41
01:45 1015 29.97 844 24.92 8.3 46.9 79 4.8 40.6
01:50 1015 29.97 844 24.92 8.2 46.7 78 4.7 40.4
01:55 1015 29.97 844 24.92 8.2 46.8 78 4.7 40.4
02:00 1015 29.97 844 24.92 8.1 46.6 79 4.6 40.3
02:05 1014 29.94 844 24.92 8.2 46.7 78 4.5 40.1
02:10 1014 29.94 844 24.92 8.2 46.8 79 4.8 40.6
02:15 1014 29.94 843 24.89 8.6 47.5 78 5 41
02:20 1014 29.94 844 24.92 8.4 47.2 78 4.9 40.8
02:25 1014 29.94 844 24.92 8.6 47.4 78 5 41
02:30 1014 29.94 844 24.92 9.1 48.5 76 5.2 41.4
02:35 1014 29.94 844 24.92 9.1 48.5 77 5.3 41.5
02:40 1014 29.94 843 24.89 9.1 48.4 75 4.9 40.9
02:45 1014 29.94 843 24.89 8.7 47.7 75 4.6 40.2
02:50 1014 29.94 843 24.89 8.6 47.5 76 4.6 40.2
02:55 1014 29.94 843 24.89 8.5 47.4 75 4.4 39.9
03:00 1014 29.94 843 24.89 8.3 47 76 4.3 39.7
03:05 1014 29.94 843 24.89 8.5 47.2 75 4.3 39.8
03:10 1014 29.94 843 24.89 8.5 47.3 76 4.5 40.1
03:15 1014 29.94 843 24.89 8.6 47.5 75 4.5 40.1
03:20 1014 29.94 843 24.89 8.4 47.2 76 4.5 40.1
03:25 1014 29.94 843 24.89 8.4 47.1 75 4.3 39.7
03:30 1014 29.94 843 24.89 8.8 47.8 73 4.2 39.6
03:35 1014 29.94 843 24.89 8.7 47.6 72 4 39.2
03:40 1014 29.94 843 24.89 8.6 47.6 73 4.1 39.3
03:45 1014 29.94 843 24.89 8.4 47.2 73 4 39.1
03:50 1014 29.94 843 24.89 8.2 46.8 75 4.1 39.4
03:55 1014 29.94 843 24.89 8.2 46.7 74 3.9 39
04:00 1014 29.94 843 24.89 8.6 47.5 73 4.1 39.4
04:05 1014 29.94 843 24.89 8.8 47.8 73 4.2 39.5
04:10 1014 29.94 843 24.89 8.9 48 73 4.3 39.7
04:15 1014 29.94 843 24.89 8.8 47.8 72 4 39.3
04:20 1014 29.94 843 24.89 8.7 47.7 71 3.8 38.9
04:25 1014 29.94 843 24.89 8.6 47.5 70 3.5 38.2
04:30 1014 29.94 843 24.89 8.7 47.7 69 3.3 37.9
04:35 1014 29.94 843 24.89 8.5 47.4 69 3.2 37.8
04:40 1014 29.94 843 24.89 8.4 47.1 69 3 37.5
04:45 1014 29.94 843 24.89 8.5 47.4 67 2.7 36.9
04:50 1014 29.94 843 24.89 8.9 47.9 67 3.1 37.5
04:55 1014 29.94 843 24.89 8.8 47.9 68 3.3 38
05:00 1014 29.94 843 24.89 8.3 46.9 71 3.4 38.1
05:05 1013 29.91 843 24.89 7.8 46 74 3.5 38.2
05:10 1013 29.91 843 24.89 8.4 47 73 3.8 38.9
05:15 1013 29.91 843 24.89 9.3 48.7 74 4.9 40.8
05:20 1013 29.91 842 24.86 9.9 49.9 75 5.7 42.3
05:25 1013 29.91 842 24.86 10.3 50.5 75 6.1 43
05:30 1013 29.91 843 24.89 10.3 50.6 77 6.4 43.6
05:35 1013 29.91 843 24.89 10.4 50.6 77 6.4 43.6
05:40 1013 29.91 842 24.86 10.3 50.6 77 6.6 43.8
05:45 1013 29.91 842 24.86 10.3 50.6 79 6.9 44.5
05:50 1013 29.91 842 24.86 10.5 50.8 80 7.1 44.8
05:55 1013 29.91 842 24.86 10.5 50.8 80 7.1 44.8
06:00 1013 29.91 842 24.86 10.4 50.8 80 7.1 44.8
06:05 1013 29.91 843 24.89 10.4 50.7 81 7.3 45.1
06:10 1013 29.91 843 24.89 10.5 50.9 80 7.3 45.1
06:15 1013 29.91 843 24.89 10.6 51 81 7.4 45.3
06:20 1013 29.91 843 24.89 10.5 50.9 80 7.2 45
06:25 1013 29.91 843 24.89 10.5 50.9 80 7.2 44.9
06:30 1013 29.91 842 24.86 10.5 50.9 80 7.2 44.9
06:35 1013 29.91 842 24.86 10.6 51.1 80 7.4 45.2
06:40 1013 29.91 843 24.89 10.6 51 81 7.4 45.3
06:45 1013 29.91 843 24.89 10.6 51 80 7.4 45.3
06:50 1013 29.91 843 24.89 10.5 51 81 7.4 45.3
06:55 1013 29.91 843 24.89 10.6 51.1 81 7.5 45.4
07:00 1013 29.91 843 24.89 10.6 51.1 81 7.5 45.5
07:05 1013 29.91 843 24.89 10.7 51.2 81 7.6 45.7
07:10 1013 29.91 843 24.89 10.8 51.4 81 7.6 45.7
07:15 1014 29.94 843 24.89 10.9 51.6 81 7.7 45.8
07:20 1014 29.94 843 24.89 10.9 51.6 81 7.7 45.9
07:25 1014 29.94 843 24.89 10.9 51.6 81 7.8 46
07:30 1013 29.91 843 24.89 10.8 51.5 81 7.7 45.9
07:35 1013 29.91 842 24.86 10.7 51.3 82 7.8 46
07:40 1013 29.91 842 24.86 10.7 51.2 82 7.7 45.9
07:45 1013 29.91 843 24.89 10.7 51.3 82 7.8 46
07:50 1013 29.91 842 24.86 10.9 51.6 81 7.8 46.1
07:55 1013 29.91 842 24.86 10.9 51.7 81 7.9 46.1
08:00 1013 29.91 842 24.86 11 51.8 81 7.9 46.2
08:05 1013 29.91 842 24.86 11 51.8 81 7.9 46.2
08:10 1013 29.91 842 24.86 11 51.7 81 7.9 46.3
08:15 1013 29.91 842 24.86 10.9 51.6 82 7.9 46.2
08:20 1013 29.91 842 24.86 10.7 51.3 84 8.1 46.6
08:25 1013 29.91 842 24.86 10.4 50.6 85 8 46.4
08:30 1013 29.91 842 24.86 10.2 50.4 86 7.9 46.3
08:35 1013 29.91 842 24.86 10.2 50.3 87 8.1 46.5
08:40 1013 29.91 842 24.86 10.1 50.2 86 7.9 46.3
08:45 1013 29.91 842 24.86 10.2 50.3 85 7.8 46.1
08:50 1013 29.91 842 24.86 10.1 50.2 86 7.8 46.1
08:55 1013 29.91 842 24.86 10.1 50.2 85 7.8 46
09:00 1013 29.91 842 24.86 10.2 50.3 85 7.8 46
09:05 1013 29.91 842 24.86 10.2 50.4 85 7.8 46
09:10 1013 29.91 842 24.86 10.3 50.5 85 7.8 46.1
09:15 1013 29.91 842 24.86 10.5 50.8 84 7.9 46.3
09:20 1013 29.91 842 24.86 10.7 51.3 83 7.9 46.2
09:25 1013 29.91 842 24.86 10.7 51.3 82 7.9 46.2
09:30 1013 29.91 842 24.86 11 51.8 80 7.8 46
09:35 1013 29.91 842 24.86 11 51.9 81 7.9 46.1
09:40 1013 29.91 842 24.86 11.3 52.4 80 8 46.3
09:45 1013 29.91 842 24.86 11.4 52.4 80 8 46.4
09:50 1013 29.91 842 24.86 11.5 52.6 79 8 46.4
09:55 1013 29.91 842 24.86 11.8 53.2 77 7.8 46.1
10:00 1013 29.91 842 24.86 11.8 53.2 77 8 46.4
10:05 1013 29.91 842 24.86 12 53.7 77 8.1 46.5
10:10 1013 29.91 842 24.86 11.9 53.5 77 8 46.4
10:15 1013 29.91 842 24.86 12.1 53.9 75 7.8 46
10:20 1012 29.88 842 24.86 12.4 54.3 73 7.8 46
10:25 1012 29.88 842 24.86 12.6 54.7 74 8.2 46.7
10:30 1012 29.88 842 24.86 12.8 55 73 8.1 46.7
10:35 1012 29.88 842 24.86 12.7 54.9 74 8.3 46.9
10:40 1012 29.88 841 24.83 12.6 54.8 74 8.1 46.5
10:45 1012 29.88 841 24.83 13 55.4 74 8.5 47.2
10:50 1012 29.88 841 24.83 13.2 55.8 72 8.3 47
10:55 1012 29.88 841 24.83 13.5 56.4 69 8.1 46.6
11:00 1012 29.88 841 24.83 13.2 55.8 72 8.3 46.9
11:05 1012 29.88 841 24.83 13.2 55.8 71 8.1 46.7
11:10 1012 29.88 841 24.83 13.5 56.3 69 8 46.4
11:15 1012 29.88 841 24.83 13.3 56 71 8.3 47
11:20 1012 29.88 841 24.83 13.3 56 69 7.8 46.1
11:25 1012 29.88 841 24.83 13.4 56.1 67 7.4 45.4
11:30 1012 29.88 841 24.83 13.6 56.4 68 7.9 46.3
11:35 1012 29.88 841 24.83 13.2 55.8 71 8.1 46.6
11:40 1012 29.88 841 24.83 13.1 55.6 71 8 46.4
11:45 1012 29.88 841 24.83 13.4 56.1 70 8 46.5
11:50 1012 29.88 841 24.83 13.7 56.6 69 8.1 46.5
11:55 1012 29.88 841 24.83 13.8 56.9 67 7.9 46.3
12:00 1012 29.88 841 24.83 13.8 56.9 66 7.6 45.8
12:05 1012 29.88 841 24.83 14.2 57.6 63 7.4 45.3
12:10 1012 29.88 841 24.83 14.6 58.3 62 7.5 45.5
12:15 1012 29.88 841 24.83 14.6 58.3 63 7.7 45.9
12:20 1011 29.85 841 24.83 14.8 58.6 61 7.4 45.3
12:25 1011 29.85 841 24.83 15 58.9 62 7.7 45.9
12:30 1011 29.85 841 24.83 15 59 62 7.8 46
12:35 1011 29.85 841 24.83 15.1 59.2 61 7.8 46
12:40 1011 29.85 841 24.83 15.3 59.5 60 7.5 45.5
12:45 1011 29.85 841 24.83 15.6 60 58 7.5 45.6
12:50 1011 29.85 841 24.83 16.2 61.2 57 7.8 46.1
12:55 1011 29.85 841 24.83 16.4 61.5 58 8.2 46.7
13:00 1011 29.85 841 24.83 15.9 60.5 59 8 46.5
13:05 1011 29.85 841 24.83 16 60.9 59 8.1 46.6
13:10 1012 29.88 841 24.83 16 60.8 61 8.5 47.3
13:15 1012 29.88 841 24.83 15.5 60 62 8.5 47.2
13:20 1011 29.85 841 24.83 15.7 60.3 61 8.3 47
13:25 1011 29.85 841 24.83 15.8 60.4 62 8.6 47.5
13:30 1011 29.85 841 24.83 15.5 59.9 66 9.3 48.7
13:35 1012 29.88 841 24.83 15.2 59.3 71 9.9 49.9
13:40 1012 29.88 841 24.83 15.2 59.3 71 10.1 50.1
13:45 1012 29.88 841 24.83 14.9 58.9 72 9.9 49.8
13:50 1012 29.88 841 24.83 14.6 58.4 75 10.4 50.7
13:55 1012 29.88 841 24.83 14.5 58 72 9.5 49
14:00 1012 29.88 841 24.83 14.2 57.5 75 9.7 49.5
14:05 1012 29.88 841 24.83 13.9 57 74 9.3 48.7
14:10 1012 29.88 841 24.83 14.2 57.5 76 10.1 50.1
14:15 1012 29.88 841 24.83 14.6 58.3 73 9.8 49.7
14:20 1012 29.88 841 24.83 14.6 58.2 72 9.6 49.3
14:25 1012 29.88 841 24.83 14.3 57.8 73 9.6 49.2
14:30 1012 29.88 842 24.86 14.4 57.9 73 9.7 49.5
14:35 1013 29.91 842 24.86 14.4 57.8 71 9.3 48.7
14:40 1013 29.91 842 24.86 14.4 57.9 75 9.9 49.9
14:45 1012 29.88 842 24.86 14.8 58.6 69 9.2 48.6
14:50 1012 29.88 842 24.86 14.9 58.7 68 9 48.3
14:55 1012 29.88 842 24.86 14.9 58.8 67 8.9 48
15:00 1012 29.88 842 24.86 15 58.9 66 8.8 47.9
15:05 1012 29.88 842 24.86 15 59.1 67 9.1 48.4
15:10 1012 29.88 842 24.86 15.5 59.9 65 9 48.2
15:15 1012 29.88 841 24.83 15.9 60.5 58 7.8 46
15:20 1012 29.88 841 24.83 15.8 60.5 57 7.5 45.5
15:25 1012 29.88 841 24.83 16 60.8 54 6.8 44.3
15:30 1012 29.88 841 24.83 16.2 61.1 53 6.7 44.1
15:35 1012 29.88 841 24.83 16.2 61.2 57 7.8 46
15:40 1012 29.88 841 24.83 16.5 61.7 55 7.4 45.4
15:45 1012 29.88 841 24.83 17 62.6 50 6.5 43.7
15:50 1012 29.88 841 24.83 17.1 62.8 46 5.4 41.8
15:55 1012 29.88 841 24.83 16.8 62.3 59 8.8 47.9
16:00 1012 29.88 841 24.83 15.9 60.5 60 8.2 46.7
16:05 1012 29.88 841 24.83 15.9 60.6 59 8.1 46.5
16:10 1012 29.88 841 24.83 15.9 60.7 56 7.3 45.1
16:15 1012 29.88 841 24.83 16.5 61.7 51 6.5 43.7
16:20 1012 29.88 841 24.83 17.5 63.4 43 4.7 40.5
16:25 1012 29.88 841 24.83 18.9 66 44 6.6 43.9
16:30 1012 29.88 841 24.83 18.9 65.9 37 4.1 39.4
16:35 1012 29.88 841 24.83 18.6 65.4 38 4.1 39.3
16:40 1012 29.88 841 24.83 18.3 64.9 39 4.4 39.9
16:45 1012 29.88 841 24.83 18 64.5 40 4.4 39.8
16:50 1012 29.88 841 24.83 18 64.4 39 3.8 38.9
16:55 1012 29.88 841 24.83 17.8 64.1 40 4 39.3
17:00 1012 29.88 841 24.83 17.4 63.2 49 6.7 44
17:05 1012 29.88 841 24.83 16.4 61.5 55 7.5 45.6
17:10 1012 29.88 842 24.86 15.6 60.1 58 7.5 45.6
17:15 1012 29.88 842 24.86 15.4 59.6 57 7.1 44.7
17:20 1012 29.88 842 24.86 15.1 59.2 61 7.7 45.9
17:25 1013 29.91 842 24.86 13.8 56.9 65 7.4 45.3
17:30 1013 29.91 842 24.86 13 55.3 67 6.9 44.5
17:35 1013 29.91 842 24.86 12.8 55 68 7 44.5
17:40 1013 29.91 842 24.86 12.9 55.2 67 7.1 44.7
17:45 1013 29.91 842 24.86 13.2 55.7 67 7.3 45.1
17:50 1013 29.91 843 24.89 13.3 55.9 66 7.2 44.9
17:55 1013 29.91 842 24.86 13.4 56 67 7.4 45.4
18:00 1014 29.94 843 24.89 13.3 55.9 68 7.5 45.5
18:05 1014 29.94 843 24.89 12.9 55.2 69 7.5 45.4
18:10 1014 29.94 843 24.89 12.7 54.8 69 7.1 44.7
18:15 1014 29.94 843 24.89 12.6 54.7 70 7.4 45.3
18:20 1014 29.94 843 24.89 12.4 54.3 73 7.6 45.7
18:25 1014 29.94 843 24.89 12.4 54.3 71 7.3 45.2
18:30 1014 29.94 843 24.89 12.9 55.2 65 6.5 43.7
18:35 1014 29.94 843 24.89 13 55.4 66 6.8 44.2
18:40 1014 29.94 843 24.89 12.9 55.2 70 7.6 45.7
18:45 1014 29.94 843 24.89 12.6 54.6 74 8 46.4
18:50 1014 29.94 843 24.89 12.2 53.9 73 7.4 45.4
18:55 1014 29.94 843 24.89 12.3 54.2 71 7.3 45.1
19:00 1014 29.94 843 24.89 12.5 54.5 72 7.6 45.7
19:05 1014 29.94 843 24.89 12.3 54.1 72 7.5 45.5
19:10 1014 29.94 843 24.89 12.2 54 73 7.5 45.5
19:15 1014 29.94 843 24.89 11.8 53.3 74 7.5 45.4
19:20 1014 29.94 843 24.89 11.8 53.2 74 7.2 45
19:25 1014 29.94 843 24.89 11.7 53.1 73 7 44.6
19:30 1014 29.94 844 24.92 11.7 53.1 73 7.2 44.9
19:35 1015 29.97 844 24.92 11.8 53.2 72 6.9 44.4
19:40 1015 29.97 844 24.92 11.7 53.1 73 7 44.6
19:45 1015 29.97 844 24.92 11.8 53.3 73 7.1 44.9
19:50 1015 29.97 844 24.92 11.7 53.1 73 7.1 44.7
19:55 1015 29.97 844 24.92 11.6 52.9 72 6.8 44.2
20:00 1015 29.97 844 24.92 11.6 52.8 73 6.9 44.4
20:05 1015 29.97 844 24.92 11.5 52.6 71 6.3 43.4
20:10 1015 29.97 844 24.92 11.4 52.6 71 6.4 43.6
20:15 1015 29.97 844 24.92 11.4 52.6 71 6.3 43.3
20:20 1015 29.97 844 24.92 11.4 52.5 70 6.3 43.3
20:25 1015 29.97 844 24.92 11.4 52.6 70 6.1 43
20:30 1015 29.97 844 24.92 11.5 52.6 70 6.2 43.2
20:35 1015 29.97 844 24.92 11.5 52.8 70 6.2 43.2
20:40 1015 29.97 844 24.92 11.7 53 69 6.2 43.2
20:45 1015 29.97 844 24.92 11.8 53.3 68 6.2 43.2
20:50 1015 29.97 844 24.92 11.9 53.3 69 6.4 43.6
20:55 1015 29.97 844 24.92 11.8 53.2 70 6.6 43.8
21:00 1015 29.97 844 24.92 11.7 53.1 71 6.6 43.8
21:05 1015 29.97 844 24.92 11.6 52.9 73 6.9 44.4
21:10 1015 29.97 844 24.92 11.1 51.9 76 7 44.6
21:15 1015 29.97 844 24.92 10.8 51.4 79 7.3 45.1
21:20 1015 29.97 844 24.92 10.6 51.1 79 7.2 45
21:25 1015 29.97 844 24.92 10.6 51.1 80 7.2 45
21:30 1015 29.97 844 24.92 10.5 51 78 6.9 44.5
21:35 1015 29.97 844 24.92 10.6 51 79 7 44.7
21:40 1015 29.97 844 24.92 10.5 50.9 78 6.9 44.3
21:45 1015 29.97 844 24.92 10.5 50.9 78 6.8 44.2
21:50 1015 29.97 844 24.92 10.5 50.8 78 6.7 44.1
21:55 1015 29.97 844 24.92 10.3 50.6 79 6.8 44.2
22:00 1015 29.97 844 24.92 10.2 50.4 79 6.8 44.2
22:05 1015 29.97 844 24.92 10 49.9 81 6.8 44.3
22:10 1015 29.97 844 24.92 9.8 49.6 81 6.8 44.2
22:15 1015 29.97 844 24.92 9.7 49.5 82 6.7 44.1
22:20 1015 29.97 844 24.92 9.6 49.3 82 6.7 44
22:25 1015 29.97 844 24.92 9.5 49.2 82 6.7 44
22:30 1015 29.97 844 24.92 9.5 49.2 81 6.5 43.7
22:35 1015 29.97 844 24.92 9.7 49.4 81 6.6 43.9
22:40 1015 29.97 844 24.92 9.7 49.5 80 6.4 43.6
22:45 1015 29.97 844 24.92 9.7 49.5 82 6.9 44.3
22:50 1015 29.97 844 24.92 9.6 49.2 83 6.8 44.2
22:55 1015 29.97 844 24.92 9.6 49.2 81 6.5 43.8
23:00 1015 29.97 844 24.92 9.8 49.7 80 6.6 43.8
23:05 1014 29.94 844 24.92 10.1 50.1 79 6.6 44
23:10 1015 29.97 844 24.92 10 49.9 80 6.7 44
23:15 1015 29.97 844 24.92 9.9 49.8 81 6.7 44.1
23:20 1014 29.94 844 24.92 9.9 49.8 81 6.7 44.1
23:25 1014 29.94 844 24.92 9.7 49.4 81 6.6 43.9
23:30 1014 29.94 843 24.89 9.8 49.6 81 6.6 43.9
23:35 1014 29.94 843 24.89 9.8 49.6 79 6.4 43.5
23:40 1014 29.94 843 24.89 9.9 49.9 79 6.4 43.6
23:45 1014 29.94 843 24.89 10.1 50.2 78 6.5 43.8
23:50 1014 29.94 843 24.89 9.8 49.7 81 6.7 44.1
23:55 1014 29.94 843 24.89 9.7 49.5 81 6.7 44
24:00 1014 29.94 844 24.92 9.7 49.5 82 6.8 44.2